Terminal Aerodrome Forecast
Issued by NWS Green Bay, WI

Home | Current Version | Previous Version | Graphics & Text | Print | Product List | Glossary On
Versions: 1 2 3 4 5 6 7 8 9 10 11 12 13 14 15 16 17 18 19 20 21 22 23 24 25 26 27 28 29 30 31 32 33 34
000
FTUS43 KGRB 272200 AAC
TAFGRB
TAF AMD
KGRB 272232Z 2723/2818 35012G19KT P6SM VCSH SCT015 BKN025 OVC100
      TEMPO 2723/2724 BKN015
     FM280000 36012KT P6SM SCT015 BKN025
     FM280300 36011KT P6SM SCT030
     FM280600 35009KT P6SM SKC
     FM281600 36010G16KT P6SM SCT040=

USA.gov is the U.S. government's official web portal to all federal, state and local government web resources and services.